createdAt,value
2018-09-28T00:05:14.350Z,30.43
2018-09-28T00:07:42.616Z,37.67
2018-09-28T00:10:10.819Z,33.73
2018-09-28T00:12:39.027Z,33.33
2018-09-28T00:15:07.314Z,41.50
2018-09-28T00:17:35.511Z,36.80
2018-09-28T00:20:03.764Z,36.37
2018-09-28T00:22:31.979Z,37.23
2018-09-28T00:25:00.235Z,40.13
2018-09-28T00:27:28.459Z,39.20
2018-09-28T00:29:56.704Z,33.07
2018-09-28T00:32:25.000Z,30.63
2018-09-28T00:34:53.255Z,36.23
2018-09-28T00:37:21.532Z,33.03
2018-09-28T00:39:49.759Z,32.23
2018-09-28T00:42:17.998Z,31.27
2018-09-28T00:44:46.242Z,42.87
2018-09-28T00:47:14.467Z,35.20
2018-09-28T00:49:42.718Z,39.20
2018-09-28T00:52:10.947Z,37.17
2018-09-28T00:54:39.172Z,37.40
2018-09-28T00:57:07.412Z,31.87
2018-09-28T00:59:35.660Z,32.63
2018-09-28T01:02:03.960Z,35.93
2018-09-28T01:04:32.196Z,32.80
2018-09-28T01:07:00.407Z,36.67
2018-09-28T01:09:28.648Z,49.70
2018-09-28T01:11:56.871Z,35.80
2018-09-28T01:14:25.830Z,43.90
2018-09-28T01:16:54.838Z,40.30
2018-09-28T01:19:23.069Z,34.07
2018-09-28T01:21:51.319Z,42.03
2018-09-28T01:24:19.550Z,42.77
2018-09-28T01:26:47.750Z,30.53
2018-09-28T01:29:16.000Z,33.27
2018-09-28T01:31:44.195Z,37.23
2018-09-28T01:34:12.552Z,37.07
2018-09-28T01:36:40.743Z,35.23
2018-09-28T01:39:09.788Z,37.27
2018-09-28T01:41:38.032Z,34.43
2018-09-28T01:44:06.263Z,37.97
2018-09-28T01:46:34.480Z,36.27
2018-09-28T01:49:02.728Z,38.37
2018-09-28T01:51:31.035Z,36.83
2018-09-28T01:53:59.242Z,38.83
2018-09-28T01:56:27.479Z,37.07
2018-09-28T01:58:55.679Z,39.90
2018-09-28T02:01:24.087Z,45.30
2018-09-28T02:03:52.475Z,40.43
2018-09-28T02:06:20.707Z,38.50
2018-09-28T02:08:48.940Z,39.20
2018-09-28T02:11:17.158Z,45.70
2018-09-28T02:13:45.406Z,38.00
2018-09-28T02:16:13.671Z,47.93
2018-09-28T02:18:41.899Z,34.83
2018-09-28T02:21:10.130Z,40.93
2018-09-28T02:23:38.332Z,45.30
2018-09-28T02:26:06.596Z,33.57
2018-09-28T02:28:34.836Z,41.93
2018-09-28T02:31:03.053Z,40.10
2018-09-28T02:33:31.400Z,36.60
2018-09-28T02:35:59.607Z,50.73
2018-09-28T02:38:27.831Z,41.53
2018-09-28T02:40:56.039Z,45.77
2018-09-28T02:43:24.291Z,37.77
2018-09-28T02:45:52.512Z,51.97
2018-09-28T02:48:20.742Z,37.63
2018-09-28T02:50:48.918Z,42.03
2018-09-28T02:53:18.630Z,41.67
2018-09-28T02:55:48.315Z,42.20
2018-09-28T02:58:16.568Z,45.17
2018-09-28T03:00:45.581Z,43.87
2018-09-28T03:03:13.827Z,43.37
2018-09-28T03:05:42.051Z,38.03
2018-09-28T03:08:11.153Z,44.73
2018-09-28T03:10:39.380Z,41.93
2018-09-28T03:13:07.822Z,39.90
2018-09-28T03:15:36.500Z,52.87
2018-09-28T03:18:04.719Z,42.90
2018-09-28T03:20:32.960Z,48.50
2018-09-28T03:23:01.167Z,44.53
2018-09-28T03:25:29.576Z,50.60
2018-09-28T03:27:57.845Z,49.17
2018-09-28T03:30:26.071Z,42.13
2018-09-28T03:32:54.341Z,56.43
2018-09-28T03:35:22.541Z,46.63
2018-09-28T03:37:51.226Z,52.23
2018-09-28T03:40:19.431Z,47.23
2018-09-28T03:42:47.664Z,42.83
2018-09-28T03:45:15.921Z,59.80
2018-09-28T03:47:46.575Z,41.80
2018-09-28T03:50:14.803Z,56.20
2018-09-28T03:52:43.026Z,48.13
2018-09-28T03:55:11.606Z,47.47
2018-09-28T03:57:39.807Z,59.17
2018-09-28T04:00:09.070Z,53.50
2018-09-28T04:02:37.430Z,44.23
2018-09-28T04:05:05.664Z,52.83
2018-09-28T04:07:33.990Z,66.03
2018-09-28T04:10:02.431Z,49.03
2018-09-28T04:12:30.671Z,44.27
2018-09-28T04:14:58.900Z,54.07
2018-09-28T04:17:27.298Z,54.47
2018-09-28T04:19:55.523Z,48.60
2018-09-28T04:22:23.747Z,49.97
2018-09-28T04:24:52.103Z,51.00
2018-09-28T04:27:20.343Z,47.00
2018-09-28T04:29:48.534Z,53.13
2018-09-28T04:32:16.760Z,51.07
2018-09-28T04:34:45.051Z,44.77
2018-09-28T04:37:13.280Z,52.50
2018-09-28T04:39:41.524Z,52.37
2018-09-28T04:42:09.862Z,45.10
2018-09-28T04:44:38.104Z,49.00
2018-09-28T04:47:06.720Z,44.03
2018-09-28T04:49:34.951Z,40.00
2018-09-28T04:52:03.204Z,43.80
2018-09-28T04:54:31.488Z,50.63
2018-09-28T04:56:59.704Z,42.40
2018-09-28T04:59:27.924Z,45.20
2018-09-28T05:01:56.176Z,55.00
2018-09-28T05:04:24.387Z,39.17
2018-09-28T05:06:52.604Z,43.57
2018-09-28T05:09:20.860Z,38.27
2018-09-28T05:11:49.451Z,48.63
2018-09-28T05:14:17.672Z,48.47
2018-09-28T05:16:45.872Z,41.97
2018-09-28T05:19:14.112Z,38.30
2018-09-28T05:21:42.342Z,51.53
2018-09-28T05:24:10.639Z,39.77
2018-09-28T05:26:38.895Z,53.60
2018-09-28T05:29:07.114Z,44.07
2018-09-28T05:31:35.397Z,38.00
2018-09-28T05:34:03.610Z,35.10
2018-09-28T05:36:31.878Z,32.80
2018-09-28T05:39:00.136Z,36.63
2018-09-28T05:41:28.318Z,25.23
2018-09-28T05:43:56.567Z,27.10
2018-09-28T05:46:24.786Z,22.33
2018-09-28T05:48:53.015Z,25.37
2018-09-28T05:51:21.671Z,21.67
2018-09-28T05:53:49.958Z,16.10
2018-09-28T05:56:18.228Z,31.90
2018-09-28T05:58:58.449Z,16.73
2018-09-28T06:01:31.991Z,25.90
2018-09-28T06:10:00.462Z,21.93
2018-09-28T06:12:28.661Z,23.63
2018-09-28T06:14:58.099Z,14.63
2018-09-28T06:17:26.323Z,10.30
2018-09-28T06:19:54.607Z,14.30
2018-09-28T06:22:22.845Z,25.00
2018-09-28T06:24:51.057Z,19.03
2018-09-28T06:27:19.279Z,18.27
2018-09-28T06:29:47.591Z,14.77
2018-09-28T06:32:15.848Z,13.83
2018-09-28T06:34:44.100Z,9.97
2018-09-28T06:37:12.331Z,13.77
2018-09-28T06:39:40.829Z,15.47
2018-09-28T06:42:09.039Z,9.23
2018-09-28T06:44:37.507Z,19.80
2018-09-28T06:47:05.647Z,18.47
2018-09-28T06:49:34.262Z,18.30
2018-09-28T06:52:02.468Z,15.77
2018-09-28T06:54:31.088Z,16.43
2018-09-28T06:56:59.295Z,16.60
2018-09-28T06:59:27.533Z,17.50
2018-09-28T07:01:55.894Z,15.27
2018-09-28T07:04:24.250Z,11.67
2018-09-28T07:06:52.469Z,14.53
2018-09-28T07:09:20.698Z,13.83
2018-09-28T07:11:48.961Z,22.33
2018-09-28T07:14:17.372Z,27.07
2018-09-28T07:16:45.603Z,22.60
2018-09-28T07:19:13.804Z,11.20
2018-09-28T07:21:42.048Z,25.73
2018-09-28T07:24:10.360Z,13.77
2018-09-28T07:26:38.538Z,17.83
2018-09-28T07:29:06.760Z,13.40
2018-09-28T07:31:35.023Z,18.43
2018-09-28T07:34:03.247Z,18.03
2018-09-28T07:36:31.591Z,23.17
2018-09-28T07:38:59.695Z,22.20
2018-09-28T07:41:27.928Z,18.83
2018-09-28T07:43:56.296Z,15.67
2018-09-28T07:46:24.576Z,25.27
2018-09-28T07:48:52.827Z,18.63
2018-09-28T07:51:21.033Z,20.00
2018-09-28T07:53:49.291Z,13.87
2018-09-28T07:56:17.622Z,16.73
2018-09-28T07:58:45.836Z,17.10
2018-09-28T08:01:14.123Z,24.17
2018-09-28T08:03:42.326Z,12.40
2018-09-28T08:06:10.567Z,16.13
2018-09-28T08:08:38.916Z,22.20
2018-09-28T08:11:07.378Z,15.90
2018-09-28T08:13:35.677Z,19.77
2018-09-28T08:16:03.920Z,26.90
2018-09-28T08:18:32.109Z,19.30
2018-09-28T08:21:00.376Z,26.53
2018-09-28T08:23:28.605Z,12.43
2018-09-28T08:25:56.815Z,11.57
2018-09-28T08:28:25.142Z,12.90
2018-09-28T08:30:53.374Z,12.77
2018-09-28T08:33:21.614Z,12.73
2018-09-28T08:35:49.799Z,14.57
2018-09-28T08:38:18.275Z,17.00
2018-09-28T08:40:46.469Z,20.30
2018-09-28T08:43:14.687Z,31.53
2018-09-28T08:45:42.908Z,23.00
2018-09-28T08:48:11.128Z,16.80
2018-09-28T08:50:39.336Z,21.37
2018-09-28T08:53:07.631Z,17.07
2018-09-28T08:55:35.847Z,15.87
2018-09-28T08:58:04.364Z,19.57
2018-09-28T09:00:32.620Z,13.23
2018-09-28T09:03:00.830Z,13.87
2018-09-28T09:05:29.244Z,15.83
2018-09-28T09:07:57.492Z,13.27
2018-09-28T09:10:25.694Z,10.53
2018-09-28T09:12:53.972Z,18.53
2018-09-28T09:15:22.212Z,17.97
2018-09-28T09:17:50.468Z,26.80
2018-09-28T09:20:18.691Z,17.07
2018-09-28T09:22:47.111Z,22.60
2018-09-28T09:25:15.352Z,14.90
2018-09-28T09:27:43.604Z,17.77
2018-09-28T09:30:11.887Z,22.03
2018-09-28T09:32:40.044Z,12.17
2018-09-28T09:35:08.372Z,11.63
2018-09-28T09:37:36.571Z,12.73
2018-09-28T09:40:04.881Z,12.10
2018-09-28T09:42:33.110Z,11.93
2018-09-28T09:45:01.321Z,19.73
2018-09-28T09:47:29.543Z,12.17
2018-09-28T09:49:57.740Z,13.93
2018-09-28T09:52:25.988Z,12.80
2018-09-28T09:54:54.243Z,18.57
2018-09-28T09:57:22.476Z,16.60
2018-09-28T09:59:50.715Z,16.83
2018-09-28T10:02:30.900Z,17.33
2018-09-28T10:04:59.111Z,22.70
2018-09-28T10:07:27.339Z,14.53
2018-09-28T10:09:55.610Z,16.53
2018-09-28T10:12:23.929Z,14.53
2018-09-28T10:14:52.151Z,12.40
2018-09-28T10:17:20.415Z,17.47
2018-09-28T10:19:48.717Z,16.37
2018-09-28T10:22:16.853Z,9.70
2018-09-28T10:24:45.166Z,24.47
2018-09-28T10:27:13.449Z,11.23
2018-09-28T10:29:41.654Z,19.90
2018-09-28T10:32:09.903Z,18.47
2018-09-28T10:34:38.179Z,14.97
2018-09-28T10:37:06.368Z,10.50
2018-09-28T10:39:34.615Z,10.47
2018-09-28T10:42:02.811Z,10.13
2018-09-28T10:44:31.043Z,18.60
2018-09-28T10:46:59.283Z,23.20
2018-09-28T10:49:27.560Z,12.60
2018-09-28T10:51:55.809Z,21.50
2018-09-28T10:54:24.095Z,11.50
2018-09-28T10:56:52.309Z,13.03
2018-09-28T10:59:20.614Z,9.67
2018-09-28T11:01:48.866Z,6.80
2018-09-28T11:04:17.069Z,9.93
2018-09-28T11:06:45.314Z,7.23
2018-09-28T11:09:13.697Z,9.97
2018-09-28T11:11:42.380Z,5.27
2018-09-28T11:14:10.698Z,10.20
2018-09-28T11:16:39.367Z,6.60
2018-09-28T11:19:07.597Z,11.00
2018-09-28T11:21:35.860Z,18.67
2018-09-28T11:24:04.248Z,6.67
2018-09-28T11:26:32.485Z,13.73
2018-09-28T11:29:00.738Z,8.50
2018-09-28T11:31:29.024Z,7.73
2018-09-28T11:33:57.278Z,9.70
2018-09-28T11:36:25.471Z,10.63
2018-09-28T11:38:53.700Z,12.67
2018-09-28T11:41:21.908Z,9.03
2018-09-28T11:43:50.151Z,14.33
2018-09-28T11:46:18.401Z,6.10
2018-09-28T11:48:46.656Z,13.37
2018-09-28T11:51:14.929Z,13.90
2018-09-28T11:53:43.128Z,12.10
2018-09-28T11:56:11.331Z,11.03
2018-09-28T11:58:39.576Z,9.80
2018-09-28T12:01:07.875Z,8.43
2018-09-28T12:03:36.134Z,4.83
2018-09-28T12:06:04.445Z,14.43
2018-09-28T12:08:32.740Z,9.13
2018-09-28T12:11:01.018Z,18.73
2018-09-28T12:13:29.278Z,11.70
2018-09-28T12:15:57.444Z,7.20
2018-09-28T12:18:25.972Z,12.20
2018-09-28T12:20:54.119Z,29.50
2018-09-28T12:23:22.373Z,13.50
2018-09-28T12:25:50.607Z,11.07
2018-09-28T12:28:18.828Z,4.23
2018-09-28T12:30:47.145Z,7.07
2018-09-28T12:33:15.354Z,7.13
2018-09-28T12:35:43.626Z,9.53
2018-09-28T12:38:11.786Z,10.33
2018-09-28T12:40:39.983Z,6.57
2018-09-28T12:43:08.391Z,9.73
2018-09-28T12:45:36.780Z,9.27
2018-09-28T12:48:04.955Z,3.90
2018-09-28T12:50:33.246Z,7.03
2018-09-28T12:53:01.399Z,11.10
2018-09-28T12:55:29.611Z,5.53
2018-09-28T12:57:57.832Z,8.67
2018-09-28T13:00:26.104Z,10.20
2018-09-28T13:02:54.304Z,9.97
2018-09-28T13:05:22.629Z,10.43
2018-09-28T13:07:50.868Z,14.50
2018-09-28T13:10:19.090Z,6.17
2018-09-28T13:12:47.352Z,13.37
2018-09-28T13:15:15.840Z,2.27
2018-09-28T13:17:50.559Z,12.90
2018-09-28T13:20:18.813Z,3.33
2018-09-28T13:22:46.983Z,5.27
2018-09-28T13:25:15.216Z,8.70
2018-09-28T13:27:43.464Z,7.77
2018-09-28T13:30:11.758Z,9.67
2018-09-28T13:32:39.998Z,8.00
2018-09-28T13:35:08.239Z,4.53
2018-09-28T13:37:36.469Z,6.47
2018-09-28T13:40:04.863Z,26.53
2018-09-28T13:42:33.084Z,5.00
2018-09-28T13:45:01.378Z,3.87
2018-09-28T13:47:29.539Z,4.40
2018-09-28T13:49:57.798Z,5.53
2018-09-28T13:52:26.058Z,12.23
2018-09-28T13:54:54.283Z,4.87
2018-09-28T13:57:22.479Z,6.77
2018-09-28T13:59:50.751Z,7.50
2018-09-28T14:02:19.020Z,5.07
2018-09-28T14:04:47.281Z,6.23
2018-09-28T14:07:15.712Z,7.40
2018-09-28T14:09:43.760Z,7.33
2018-09-28T14:12:12.058Z,6.20
2018-09-28T14:14:40.243Z,4.03
2018-09-28T14:17:08.460Z,9.50
2018-09-28T14:19:36.727Z,5.20
2018-09-28T14:22:04.947Z,6.60
2018-09-28T14:24:33.181Z,2.93
2018-09-28T14:27:01.428Z,7.83
2018-09-28T14:29:29.636Z,4.50
2018-09-28T14:31:57.927Z,2.30
2018-09-28T14:34:26.202Z,2.40
2018-09-28T14:36:54.388Z,2.37
2018-09-28T14:39:22.626Z,4.00
2018-09-28T14:41:50.899Z,6.90
2018-09-28T14:44:19.149Z,5.43
2018-09-28T14:46:47.375Z,2.83
2018-09-28T14:49:15.601Z,4.90
2018-09-28T14:51:43.759Z,4.20
2018-09-28T14:54:12.122Z,5.50
2018-09-28T14:56:40.350Z,4.70
2018-09-28T14:59:08.532Z,2.70
2018-09-28T15:01:36.751Z,5.77
2018-09-28T15:04:05.174Z,6.17
2018-09-28T15:06:33.411Z,3.67
2018-09-28T15:09:01.588Z,6.83
2018-09-28T15:11:29.855Z,4.60
2018-09-28T15:13:58.109Z,9.73
2018-09-28T15:16:26.418Z,7.70
2018-09-28T15:18:54.602Z,7.23
2018-09-28T15:21:22.828Z,8.07
2018-09-28T15:23:51.067Z,7.77
2018-09-28T15:26:19.303Z,6.30
2018-09-28T15:28:47.505Z,5.97
2018-09-28T15:31:15.747Z,2.83
2018-09-28T15:33:44.007Z,3.60
2018-09-28T15:36:12.259Z,6.83
2018-09-28T15:38:40.517Z,6.70
2018-09-28T15:41:08.771Z,3.70
2018-09-28T15:43:37.271Z,4.43
2018-09-28T15:46:05.479Z,6.73
2018-09-28T15:48:33.705Z,5.23
2018-09-28T15:51:01.947Z,5.50
2018-09-28T15:53:30.204Z,14.03
2018-09-28T15:55:58.442Z,8.83
2018-09-28T15:58:26.711Z,12.97
2018-09-28T16:00:54.935Z,7.30
2018-09-28T16:03:23.367Z,6.03
2018-09-28T16:05:51.576Z,4.23
2018-09-28T16:08:19.809Z,9.00
2018-09-28T16:10:48.281Z,4.87
2018-09-28T16:13:16.572Z,4.50
2018-09-28T16:15:44.823Z,3.07
2018-09-28T16:18:13.040Z,15.23
2018-09-28T16:20:41.225Z,6.57
2018-09-28T16:23:09.491Z,13.03
2018-09-28T16:25:37.811Z,8.20
2018-09-28T16:28:06.083Z,11.20
2018-09-28T16:30:34.307Z,7.00
2018-09-28T16:33:07.450Z,6.20
2018-09-28T16:35:35.675Z,11.30
2018-09-28T16:38:04.025Z,10.33
2018-09-28T16:40:32.237Z,14.40
2018-09-28T16:43:00.521Z,8.63
2018-09-28T16:45:28.758Z,4.33
2018-09-28T16:47:56.991Z,15.60
2018-09-28T16:50:25.226Z,7.27
2018-09-28T16:52:53.472Z,8.10
2018-09-28T16:57:56.498Z,6.97
2018-09-28T17:00:24.705Z,6.57
2018-09-28T17:02:53.012Z,8.57
2018-09-28T17:05:21.312Z,10.57
2018-09-28T17:07:49.503Z,8.03
2018-09-28T17:10:17.727Z,7.50
2018-09-28T17:12:45.971Z,7.83
2018-09-28T17:15:14.239Z,9.50
2018-09-28T17:17:42.503Z,6.97
2018-09-28T17:20:11.626Z,12.97
2018-09-28T17:22:45.330Z,33.10
2018-09-28T17:25:13.754Z,12.80
2018-09-28T17:27:42.080Z,33.90
2018-09-28T17:30:10.312Z,24.60
2018-09-28T17:32:38.548Z,8.43
2018-09-28T17:35:06.818Z,20.43
2018-09-28T17:37:35.091Z,6.80
2018-09-28T17:40:03.315Z,5.53
2018-09-28T17:42:31.607Z,11.10
2018-09-28T17:44:59.816Z,8.10
2018-09-28T17:47:28.051Z,7.07
2018-09-28T17:49:56.275Z,12.63
2018-09-28T17:52:24.538Z,30.37
2018-09-28T17:54:52.809Z,11.00
2018-09-28T17:57:21.055Z,8.60
2018-09-28T17:59:49.349Z,10.33
2018-09-28T18:02:17.617Z,7.13
2018-09-28T18:04:45.832Z,8.20
2018-09-28T18:07:14.070Z,4.37
2018-09-28T18:09:42.283Z,9.87
2018-09-28T18:12:10.490Z,14.97
2018-09-28T18:14:38.714Z,14.67
2018-09-28T18:17:06.936Z,13.10
2018-09-28T18:19:35.147Z,8.80
2018-09-28T18:22:03.466Z,7.10
2018-09-28T18:24:31.726Z,9.00
2018-09-28T18:26:59.925Z,13.40
2018-09-28T18:29:28.131Z,9.00
2018-09-28T18:31:56.363Z,11.23
2018-09-28T18:34:24.675Z,16.43
2018-09-28T18:36:52.962Z,12.23
2018-09-28T18:39:21.207Z,7.70
2018-09-28T18:41:49.404Z,7.73
2018-09-28T18:44:17.634Z,8.10
2018-09-28T18:46:45.886Z,9.23
2018-09-28T18:49:14.169Z,7.37
2018-09-28T18:51:42.390Z,9.27
2018-09-28T18:54:10.698Z,11.23
2018-09-28T18:56:38.995Z,8.40
2018-09-28T18:59:07.391Z,14.67
2018-09-28T19:01:35.560Z,10.20
2018-09-28T19:04:03.974Z,16.20
2018-09-28T19:06:32.187Z,11.80
2018-09-28T19:09:00.375Z,9.30
2018-09-28T19:11:28.769Z,6.70
2018-09-28T19:13:57.029Z,12.00
2018-09-28T19:16:25.244Z,11.70
2018-09-28T19:18:54.423Z,4.90
2018-09-28T19:21:22.701Z,10.37
2018-09-28T19:23:51.206Z,13.67
2018-09-28T19:26:19.886Z,6.10
2018-09-28T19:28:48.287Z,6.93
2018-09-28T19:31:16.854Z,13.93
2018-09-28T19:33:45.078Z,6.67
2018-09-28T19:36:13.403Z,8.60
2018-09-28T19:38:41.760Z,3.67
2018-09-28T19:41:10.011Z,7.87
2018-09-28T19:43:38.694Z,13.03
2018-09-28T19:46:07.203Z,7.77
2018-09-28T19:48:35.670Z,7.87
2018-09-28T19:51:03.948Z,7.93
2018-09-28T19:53:32.646Z,8.83
2018-09-28T19:56:01.763Z,10.03
2018-09-28T19:58:30.112Z,12.17
2018-09-28T20:00:58.515Z,6.70
2018-09-28T20:03:26.930Z,9.40
2018-09-28T20:05:55.115Z,5.57
2018-09-28T20:08:24.634Z,4.47
2018-09-28T20:10:53.407Z,9.50
2018-09-28T20:13:22.419Z,10.33
2018-09-28T20:15:51.303Z,15.30
2018-09-28T20:18:20.064Z,17.13
2018-09-28T20:20:49.606Z,7.00
2018-09-28T20:23:19.347Z,16.90
2018-09-28T20:25:48.428Z,7.03
2018-09-28T20:28:17.308Z,9.30
2018-09-28T20:30:45.755Z,8.90
2018-09-28T20:33:14.414Z,5.30
2018-09-28T20:35:42.794Z,10.40
2018-09-28T20:38:11.305Z,10.53
2018-09-28T20:40:40.286Z,11.97
2018-09-28T20:43:08.642Z,23.17
2018-09-28T20:45:38.695Z,13.23
2018-09-28T20:48:07.363Z,8.33
2018-09-28T20:50:35.888Z,6.07
2018-09-28T20:53:04.330Z,5.93
2018-09-28T20:55:32.600Z,5.37
2018-09-28T20:58:01.060Z,16.20
2018-09-28T21:00:29.386Z,10.53
2018-09-28T21:02:57.678Z,13.57
2018-09-28T21:05:25.935Z,8.33
2018-09-28T21:07:54.153Z,9.00
2018-09-28T21:10:22.356Z,9.33
2018-09-28T21:12:50.551Z,9.83
2018-09-28T21:15:18.926Z,15.03
2018-09-28T21:17:48.070Z,5.60
2018-09-28T21:20:16.299Z,14.57
2018-09-28T21:22:44.550Z,21.93
2018-09-28T21:25:12.763Z,13.33
2018-09-28T21:27:40.995Z,15.57
2018-09-28T21:30:09.211Z,7.83
2018-09-28T21:32:37.427Z,7.33
2018-09-28T21:35:05.666Z,4.57
2018-09-28T21:37:33.874Z,13.30
2018-09-28T21:40:02.454Z,14.10
2018-09-28T21:42:30.665Z,11.77
2018-09-28T21:44:59.071Z,21.40
2018-09-28T21:47:27.295Z,14.33
2018-09-28T21:49:55.647Z,9.83
2018-09-28T21:52:24.013Z,6.60
2018-09-28T21:54:52.216Z,9.20
2018-09-28T21:57:20.452Z,7.50
2018-09-28T21:59:48.740Z,5.80
2018-09-28T22:02:16.952Z,11.83
2018-09-28T22:04:45.283Z,8.97
2018-09-28T22:07:13.490Z,9.13
2018-09-28T22:09:41.712Z,3.43
2018-09-28T22:12:09.936Z,7.70
2018-09-28T22:14:38.243Z,8.00
2018-09-28T22:17:06.429Z,8.80
2018-09-28T22:19:34.622Z,5.63
2018-09-28T22:22:02.855Z,9.87
2018-09-28T22:24:31.101Z,13.10
2018-09-28T22:26:59.364Z,19.60
2018-09-28T22:29:27.576Z,6.27
2018-09-28T22:31:56.896Z,8.80
2018-09-28T22:34:25.199Z,15.60
2018-09-28T22:36:53.444Z,10.73
2018-09-28T22:39:21.631Z,7.93
2018-09-28T22:41:49.883Z,6.20
2018-09-28T22:44:19.177Z,6.10
2018-09-28T22:46:47.447Z,5.77
2018-09-28T22:49:15.637Z,13.20
2018-09-28T22:51:43.945Z,5.43
2018-09-28T22:54:12.151Z,5.10
2018-09-28T22:56:40.370Z,13.40
2018-09-28T22:59:08.566Z,6.97
2018-09-28T23:01:38.275Z,11.10
2018-09-28T23:04:06.803Z,20.33
2018-09-28T23:06:35.053Z,10.77
2018-09-28T23:09:03.376Z,16.17
2018-09-28T23:11:31.578Z,8.53
2018-09-28T23:13:59.947Z,5.10
2018-09-28T23:16:28.192Z,6.33
2018-09-28T23:18:56.503Z,17.13
2018-09-28T23:21:24.756Z,10.60
2018-09-28T23:23:53.601Z,11.13
2018-09-28T23:26:21.866Z,4.70
2018-09-28T23:28:50.076Z,6.47
2018-09-28T23:31:18.297Z,11.97
2018-09-28T23:33:46.542Z,11.50
2018-09-28T23:36:15.015Z,15.43
2018-09-28T23:38:43.291Z,3.33
2018-09-28T23:41:11.517Z,5.83
2018-09-28T23:43:39.788Z,4.70
2018-09-28T23:46:07.992Z,8.53
2018-09-28T23:48:36.256Z,11.23
2018-09-28T23:51:04.608Z,13.97
2018-09-28T23:53:32.824Z,4.03
2018-09-28T23:56:01.047Z,14.97
2018-09-28T23:58:29.271Z,10.13
